This is the latest recevied weather packets stored in our database for station/object K0WOI. If no packets are shown the sender has not sent any weather packets the latest 1 day(s).
| Time | Temp. | Humidity | Pressure | Rain* | Wind** | Luminosity | Snow |
|---|---|---|---|---|---|---|---|
| 1778025406 | 12.78° C | 34% | 1010.5 hPa | 0 mm | 0.45 m/s, 333° | 44 W/m² | - |
| 1778025103 | 12.78° C | 34% | 1010.5 hPa | 0 mm | 1.34 m/s, 330° | 53 W/m² | - |
| 1778024800 | 12.78° C | 34% | 1010.6 hPa | 0 mm | 1.34 m/s, 315° | 58 W/m² | - |
| 1778024497 | 12.78° C | 35% | 1010.4 hPa | 0 mm | 1.34 m/s, 314° | 60 W/m² | - |
| 1778024194 | 12.78° C | 34% | 1010.3 hPa | 0 mm | 0.45 m/s, 316° | 64 W/m² | - |
| 1778023892 | 12.78° C | 33% | 1010.5 hPa | 0 mm | 1.34 m/s, 316° | 69 W/m² | - |
| 1778023589 | 12.78° C | 33% | 1010.5 hPa | 0 mm | 3.13 m/s, 329° | 73 W/m² | - |
| 1778023286 | 12.78° C | 32% | 1010.4 hPa | 0 mm | 2.68 m/s, 317° | 72 W/m² | - |
| 1778022983 | 13.33° C | 33% | 1010.2 hPa | 0 mm | 1.79 m/s, 317° | 69 W/m² | - |
| 1778022682 | 13.33° C | 33% | 1010.3 hPa | 0 mm | 2.68 m/s, 300° | 74 W/m² | - |
| 1778022380 | 13.33° C | 34% | 1009.9 hPa | 0 mm | 2.24 m/s, 324° | 81 W/m² | - |
| 1778022075 | 13.33° C | 33% | 1010.3 hPa | 0 mm | 2.24 m/s, 320° | 91 W/m² | - |
| 1778021772 | 13.33° C | 33% | 1009.8 hPa | 0 mm | 2.24 m/s, 296° | 94 W/m² | - |
| 1778021468 | 13.89° C | 35% | 1010 hPa | 0 mm | 0.89 m/s, 317° | 103 W/m² | - |
| 1778021165 | 13.89° C | 37% | 1009.9 hPa | 0 mm | 0.89 m/s, 316° | 112 W/m² | - |
| 1778020862 | 13.89° C | 33% | 1010.1 hPa | 0 mm | 1.79 m/s, 316° | 113 W/m² | - |
| 1778020560 | 13.89° C | 32% | 1010.2 hPa | 0 mm | 1.34 m/s, 333° | 124 W/m² | - |
| 1778020256 | 14.44° C | 35% | 1009.8 hPa | 0 mm | 2.68 m/s, 1° | 164 W/m² | - |
| 1778019952 | 14.44° C | 32% | 1010 hPa | 0 mm | 3.13 m/s, 327° | 172 W/m² | - |
| 1778019648 | 14.44° C | 32% | 1010 hPa | 0 mm | 1.34 m/s, 316° | 177 W/m² | - |
| 1778019346 | 14.44° C | 32% | 1009.7 hPa | 0 mm | 2.24 m/s, 302° | 160 W/m² | - |
| 1778019042 | 13.89° C | 31% | 1009.9 hPa | 0 mm | 1.34 m/s, 315° | 172 W/m² | - |
| 1778018739 | 13.89° C | 32% | 1010 hPa | 0 mm | 3.13 m/s, 328° | 185 W/m² | - |
| 1778018437 | 14.44° C | 34% | 1010 hPa | 0 mm | 1.34 m/s, 309° | 199 W/m² | - |
| 1778018135 | 13.89° C | 32% | 1009.9 hPa | 0 mm | 2.24 m/s, 343° | 207 W/m² | - |
* Rain latest hour (hover to see other rain measurements)
** Current wind speed in m/s (hover to see current wind gust speed)